createdAt,value
2023-03-22T00:01:31.292Z,9.09
2023-03-22T00:03:57.589Z,9.13
2023-03-22T00:06:23.951Z,9.09
2023-03-22T00:08:50.456Z,9.11
2023-03-22T00:11:16.671Z,9.14
2023-03-22T00:13:42.884Z,9.11
2023-03-22T00:16:09.705Z,9.10
2023-03-22T00:18:35.983Z,9.07
2023-03-22T00:21:02.210Z,9.09
2023-03-22T00:23:28.584Z,9.06
2023-03-22T00:25:55.092Z,9.07
2023-03-22T00:28:21.364Z,9.03
2023-03-22T00:30:51.495Z,9.07
2023-03-22T00:33:17.720Z,9.02
2023-03-22T00:35:53.240Z,9.02
2023-03-22T00:38:20.648Z,9.04
2023-03-22T00:40:48.135Z,9.02
2023-03-22T00:43:14.339Z,9.05
2023-03-22T00:45:40.568Z,8.97
2023-03-22T00:48:10.306Z,8.97
2023-03-22T00:50:37.263Z,8.90
2023-03-22T00:53:03.620Z,8.87
2023-03-22T00:55:30.009Z,8.82
2023-03-22T00:57:56.223Z,8.85
2023-03-22T01:00:22.754Z,8.77
2023-03-22T01:02:49.075Z,8.75
2023-03-22T01:05:15.289Z,8.72
2023-03-22T01:07:42.130Z,8.66
2023-03-22T01:10:08.632Z,8.61
2023-03-22T01:12:34.835Z,8.60
2023-03-22T01:15:01.074Z,8.62
2023-03-22T01:17:27.281Z,8.56
2023-03-22T01:19:53.506Z,8.53
2023-03-22T01:22:19.712Z,8.59
2023-03-22T01:24:45.945Z,8.55
2023-03-22T01:27:12.199Z,8.57
2023-03-22T01:29:38.441Z,8.53
2023-03-22T01:32:04.739Z,8.48
2023-03-22T01:34:30.939Z,8.49
2023-03-22T01:36:57.150Z,8.49
2023-03-22T01:39:23.363Z,8.47
2023-03-22T01:41:49.579Z,8.47
2023-03-22T01:44:22.205Z,8.45
2023-03-22T01:46:48.864Z,8.40
2023-03-22T01:49:16.217Z,8.32
2023-03-22T01:51:43.843Z,8.27
2023-03-22T01:54:10.832Z,8.28
2023-03-22T01:56:37.663Z,8.23
2023-03-22T01:59:04.751Z,8.26
2023-03-22T02:01:31.037Z,8.17
2023-03-22T02:03:58.659Z,8.15
2023-03-22T02:06:25.038Z,8.14
2023-03-22T02:08:51.287Z,8.15
2023-03-22T02:11:17.933Z,8.22
2023-03-22T02:14:02.981Z,8.13
2023-03-22T02:16:35.848Z,8.08
2023-03-22T02:19:14.731Z,8.08
2023-03-22T02:21:44.006Z,8.10
2023-03-22T02:24:22.456Z,8.11
2023-03-22T02:26:59.706Z,8.08
2023-03-22T02:29:40.631Z,8.06
2023-03-22T02:32:12.913Z,8.09
2023-03-22T02:34:58.095Z,8.15
2023-03-22T02:37:32.679Z,8.07
2023-03-22T02:39:58.845Z,8.05
2023-03-22T02:42:27.362Z,8.03
2023-03-22T02:45:01.620Z,8.07
2023-03-22T02:47:38.980Z,8.05
2023-03-22T02:50:14.120Z,7.98
2023-03-22T02:52:40.293Z,8.02
2023-03-22T02:55:20.850Z,8.05
2023-03-22T02:57:52.561Z,8.04
2023-03-22T03:00:18.842Z,8.09
2023-03-22T03:02:47.201Z,8.15
2023-03-22T03:05:13.408Z,8.14
2023-03-22T03:07:39.628Z,8.15
2023-03-22T03:10:06.125Z,8.18
2023-03-22T03:12:32.338Z,8.17
2023-03-22T03:14:58.544Z,8.16
2023-03-22T03:17:28.158Z,8.18
2023-03-22T03:19:57.461Z,8.18
2023-03-22T03:22:42.394Z,8.22
2023-03-22T03:25:19.512Z,8.22
2023-03-22T03:27:47.536Z,8.22
2023-03-22T03:30:14.455Z,8.22
2023-03-22T03:32:48.086Z,8.22
2023-03-22T03:35:15.172Z,8.26
2023-03-22T03:37:41.951Z,8.26
2023-03-22T03:40:18.339Z,8.27
2023-03-22T03:42:46.132Z,8.30
2023-03-22T03:45:12.343Z,8.32
2023-03-22T03:47:38.549Z,8.38
2023-03-22T03:50:04.859Z,8.37
2023-03-22T03:52:31.067Z,8.44
2023-03-22T03:54:57.402Z,8.42
2023-03-22T03:57:23.611Z,8.44
2023-03-22T03:59:49.815Z,8.43
2023-03-22T04:02:16.079Z,8.43
2023-03-22T04:04:42.373Z,8.47
2023-03-22T04:07:08.616Z,8.50
2023-03-22T04:09:35.691Z,8.49
2023-03-22T04:12:01.888Z,8.49
2023-03-22T04:14:28.136Z,8.48
2023-03-22T04:16:54.502Z,8.48
2023-03-22T04:19:20.764Z,8.47
2023-03-22T04:21:46.978Z,8.49
2023-03-22T04:24:13.202Z,8.50
2023-03-22T04:26:39.485Z,8.49
2023-03-22T04:29:06.149Z,8.49
2023-03-22T04:31:32.721Z,8.44
2023-03-22T04:33:58.933Z,8.38
2023-03-22T04:36:25.176Z,8.38
2023-03-22T04:38:51.524Z,8.46
2023-03-22T04:41:17.949Z,8.43
2023-03-22T04:43:44.167Z,8.43
2023-03-22T04:46:10.420Z,8.51
2023-03-22T04:48:37.089Z,8.47
2023-03-22T04:51:04.270Z,8.41
2023-03-22T04:53:30.547Z,8.41
2023-03-22T04:55:56.860Z,8.42
2023-03-22T04:58:23.596Z,8.40
2023-03-22T05:00:50.150Z,8.44
2023-03-22T05:03:16.354Z,8.40
2023-03-22T05:05:48.949Z,8.38
2023-03-22T05:08:15.167Z,8.37
2023-03-22T05:10:41.859Z,8.41
2023-03-22T05:13:08.255Z,8.38
2023-03-22T05:15:34.477Z,8.43
2023-03-22T05:18:00.697Z,8.42
2023-03-22T05:20:26.902Z,8.41
2023-03-22T05:22:53.110Z,8.43
2023-03-22T05:25:19.320Z,8.44
2023-03-22T05:27:45.526Z,8.45
2023-03-22T05:30:11.783Z,8.53
2023-03-22T05:32:37.985Z,8.51
2023-03-22T05:35:04.287Z,8.53
2023-03-22T05:37:30.491Z,8.57
2023-03-22T05:39:56.709Z,8.53
2023-03-22T05:42:22.908Z,8.64
2023-03-22T05:44:49.121Z,8.60
2023-03-22T05:47:15.327Z,8.58
2023-03-22T05:49:41.533Z,8.62
2023-03-22T05:52:07.740Z,8.60
2023-03-22T05:54:33.957Z,8.64
2023-03-22T05:57:00.164Z,8.65
2023-03-22T05:59:26.584Z,8.66
2023-03-22T06:01:54.522Z,8.70
2023-03-22T06:04:20.751Z,8.69
2023-03-22T06:06:46.944Z,8.78
2023-03-22T06:09:17.406Z,8.79
2023-03-22T06:11:44.116Z,8.74
2023-03-22T06:14:10.335Z,8.78
2023-03-22T06:16:36.574Z,8.81
2023-03-22T06:19:02.807Z,8.83
2023-03-22T06:21:29.032Z,8.90
2023-03-22T06:23:55.244Z,8.91
2023-03-22T06:26:21.448Z,8.98
2023-03-22T06:28:47.674Z,9.04
2023-03-22T06:31:13.948Z,9.06
2023-03-22T06:33:40.238Z,9.07
2023-03-22T06:36:06.712Z,9.06
2023-03-22T06:38:32.926Z,9.03
2023-03-22T06:40:59.130Z,9.05
2023-03-22T06:43:25.323Z,9.05
2023-03-22T06:45:51.573Z,9.05
2023-03-22T06:48:17.839Z,9.09
2023-03-22T06:50:44.612Z,9.15
2023-03-22T06:53:11.021Z,9.34
2023-03-22T06:55:37.280Z,10.04
2023-03-22T06:58:03.544Z,10.56
2023-03-22T07:00:29.801Z,10.56
2023-03-22T07:06:19.570Z,10.05
2023-03-22T07:08:50.748Z,9.88
2023-03-22T07:11:17.747Z,9.79
2023-03-22T07:13:43.964Z,9.69
2023-03-22T07:16:10.247Z,9.72
2023-03-22T07:18:36.499Z,9.75
2023-03-22T07:21:02.711Z,9.75
2023-03-22T07:23:28.921Z,9.85
2023-03-22T07:25:55.136Z,9.90
2023-03-22T07:28:21.527Z,10.02
2023-03-22T07:30:47.809Z,10.09
2023-03-22T07:33:14.024Z,10.47
2023-03-22T07:35:40.677Z,10.56
2023-03-22T07:38:06.914Z,10.65
2023-03-22T07:40:33.128Z,10.96
2023-03-22T07:42:59.329Z,11.16
2023-03-22T07:45:25.672Z,11.17
2023-03-22T07:47:51.936Z,11.09
2023-03-22T07:50:18.164Z,11.12
2023-03-22T07:52:44.659Z,11.12
2023-03-22T07:55:11.524Z,11.07
2023-03-22T07:57:37.733Z,11.03
2023-03-22T08:00:04.680Z,10.97
2023-03-22T08:02:30.887Z,10.90
2023-03-22T08:04:57.097Z,10.93
2023-03-22T08:07:23.353Z,10.98
2023-03-22T08:09:49.563Z,10.97
2023-03-22T08:12:15.780Z,10.93
2023-03-22T08:14:41.980Z,10.94
2023-03-22T08:17:08.179Z,10.93
2023-03-22T08:19:34.407Z,10.96
2023-03-22T08:22:00.649Z,11.07
2023-03-22T08:24:26.853Z,11.14
2023-03-22T08:26:53.180Z,11.14
2023-03-22T08:29:19.404Z,11.10
2023-03-22T08:31:45.654Z,11.14
2023-03-22T08:34:11.888Z,11.14
2023-03-22T08:36:38.174Z,11.14
2023-03-22T08:39:04.790Z,11.13
2023-03-22T08:41:30.990Z,11.16
2023-03-22T08:43:57.191Z,11.29
2023-03-22T08:46:23.639Z,11.36
2023-03-22T08:48:49.876Z,11.43
2023-03-22T08:51:19.522Z,11.59
2023-03-22T08:53:46.132Z,11.65
2023-03-22T08:56:12.347Z,11.71
2023-03-22T08:58:38.542Z,11.75
2023-03-22T09:01:04.894Z,11.74
2023-03-22T09:03:31.157Z,11.79
2023-03-22T09:05:57.370Z,11.86
2023-03-22T09:08:23.575Z,11.91
2023-03-22T09:10:49.783Z,11.98
2023-03-22T09:13:15.988Z,12.06
2023-03-22T09:15:43.152Z,12.03
2023-03-22T09:18:09.673Z,11.93
2023-03-22T09:20:35.893Z,11.91
2023-03-22T09:23:02.121Z,11.77
2023-03-22T09:25:28.364Z,11.87
2023-03-22T09:27:54.560Z,11.96
2023-03-22T09:30:20.774Z,11.94
2023-03-22T09:32:46.968Z,11.92
2023-03-22T09:35:13.252Z,11.97
2023-03-22T09:37:39.467Z,12.02
2023-03-22T09:40:06.014Z,12.09
2023-03-22T09:42:33.294Z,12.11
2023-03-22T09:44:59.676Z,12.22
2023-03-22T09:47:42.281Z,12.14
2023-03-22T09:50:21.089Z,12.19
2023-03-22T09:52:47.498Z,12.22
2023-03-22T09:55:17.322Z,12.27
2023-03-22T09:57:43.530Z,12.48
2023-03-22T10:00:09.864Z,12.57
2023-03-22T10:02:38.604Z,12.63
2023-03-22T10:05:16.017Z,12.79
2023-03-22T10:07:48.155Z,12.83
2023-03-22T10:10:14.980Z,12.83
2023-03-22T10:12:58.020Z,12.74
2023-03-22T10:15:26.429Z,12.68
2023-03-22T10:17:53.439Z,12.64
2023-03-22T10:20:21.699Z,12.66
2023-03-22T10:22:47.919Z,12.68
2023-03-22T10:25:18.489Z,12.71
2023-03-22T10:27:44.719Z,12.80
2023-03-22T10:30:21.458Z,12.93
2023-03-22T10:32:58.340Z,12.97
2023-03-22T10:35:24.698Z,12.92
2023-03-22T10:37:50.986Z,12.96
2023-03-22T10:40:35.412Z,12.97
2023-03-22T10:43:10.080Z,13.07
2023-03-22T10:45:36.356Z,13.19
2023-03-22T10:48:04.074Z,13.35
2023-03-22T10:50:31.621Z,13.51
2023-03-22T10:53:07.985Z,13.59
2023-03-22T10:55:39.068Z,13.52
2023-03-22T10:58:05.490Z,13.47
2023-03-22T11:00:31.697Z,13.42
2023-03-22T11:02:58.628Z,13.45
2023-03-22T11:05:25.334Z,13.53
2023-03-22T11:07:51.539Z,13.64
2023-03-22T11:10:21.940Z,13.76
2023-03-22T11:12:49.751Z,13.95
2023-03-22T11:15:23.813Z,14.11
2023-03-22T11:17:50.035Z,14.05
2023-03-22T11:20:17.017Z,14.06
2023-03-22T11:22:43.510Z,13.80
2023-03-22T11:25:30.079Z,13.87
2023-03-22T11:28:05.557Z,13.90
2023-03-22T11:30:32.152Z,14.01
2023-03-22T11:33:02.533Z,13.92
2023-03-22T11:35:29.404Z,13.82
2023-03-22T11:37:55.798Z,13.77
2023-03-22T11:40:29.070Z,13.71
2023-03-22T11:42:56.163Z,13.79
2023-03-22T11:45:27.296Z,13.78
2023-03-22T11:47:53.595Z,13.69
2023-03-22T11:50:23.623Z,13.69
2023-03-22T11:52:49.840Z,13.82
2023-03-22T11:55:16.068Z,13.93
2023-03-22T11:57:42.291Z,14.00
2023-03-22T12:00:16.546Z,14.25
2023-03-22T12:02:43.907Z,14.39
2023-03-22T12:05:13.321Z,14.58
2023-03-22T12:07:39.592Z,14.78
2023-03-22T12:10:07.249Z,15.03
2023-03-22T12:12:35.736Z,14.84
2023-03-22T12:15:12.481Z,14.84
2023-03-22T12:17:41.494Z,14.85
2023-03-22T12:20:07.865Z,14.71
2023-03-22T12:22:34.998Z,14.76
2023-03-22T12:25:01.197Z,14.74
2023-03-22T12:27:30.466Z,14.53
2023-03-22T12:29:57.963Z,14.52
2023-03-22T12:32:28.501Z,14.41
2023-03-22T12:35:01.374Z,14.37
2023-03-22T12:37:32.839Z,14.23
2023-03-22T12:40:00.641Z,14.22
2023-03-22T12:42:30.812Z,14.35
2023-03-22T12:45:05.170Z,14.44
2023-03-22T12:47:34.770Z,14.34
2023-03-22T12:50:05.473Z,14.30
2023-03-22T12:52:45.519Z,14.41
2023-03-22T12:55:21.457Z,14.37
2023-03-22T12:57:47.662Z,14.34
2023-03-22T13:00:14.203Z,14.43
2023-03-22T13:02:40.519Z,14.41
2023-03-22T13:05:06.910Z,14.43
2023-03-22T13:07:36.124Z,14.41
2023-03-22T13:10:22.283Z,14.35
2023-03-22T13:13:07.329Z,14.15
2023-03-22T13:15:41.700Z,14.13
2023-03-22T13:18:28.110Z,14.25
2023-03-22T13:21:13.434Z,14.27
2023-03-22T13:23:58.516Z,14.35
2023-03-22T13:26:31.210Z,14.42
2023-03-22T13:28:58.266Z,14.43
2023-03-22T13:31:43.897Z,14.44
2023-03-22T13:34:14.239Z,14.43
2023-03-22T13:36:40.451Z,14.19
2023-03-22T13:39:09.946Z,14.17
2023-03-22T13:41:36.353Z,14.18
2023-03-22T13:44:04.842Z,14.25
2023-03-22T13:46:35.943Z,14.27
2023-03-22T13:49:02.159Z,14.26
2023-03-22T13:51:29.585Z,14.24
2023-03-22T13:53:55.747Z,14.27
2023-03-22T13:56:30.815Z,14.34
2023-03-22T13:58:57.032Z,14.38
2023-03-22T14:01:30.393Z,14.44
2023-03-22T14:03:59.986Z,14.38
2023-03-22T14:06:32.522Z,14.37
2023-03-22T14:08:59.839Z,14.31
2023-03-22T14:11:29.839Z,14.24
2023-03-22T14:14:00.158Z,14.20
2023-03-22T14:16:29.485Z,14.11
2023-03-22T14:18:55.719Z,14.09
2023-03-22T14:21:23.697Z,14.05
